createdAt,value
2017-09-24T00:02:27.934Z,71.30
2017-09-24T00:04:56.250Z,71.20
2017-09-24T00:07:24.630Z,71.30
2017-09-24T00:09:53.136Z,72.00
2017-09-24T00:12:22.328Z,71.00
2017-09-24T00:14:51.501Z,70.80
2017-09-24T00:17:19.812Z,70.70
2017-09-24T00:19:48.504Z,70.90
2017-09-24T00:22:17.035Z,70.90
2017-09-24T00:24:45.659Z,71.50
2017-09-24T00:27:14.094Z,71.80
2017-09-24T00:29:42.820Z,71.20
2017-09-24T00:32:12.321Z,71.30
2017-09-24T00:34:41.434Z,71.40
2017-09-24T00:37:09.835Z,71.30
2017-09-24T00:39:38.131Z,71.30
2017-09-24T00:42:06.238Z,71.50
2017-09-24T00:44:35.335Z,71.80
2017-09-24T00:47:04.635Z,71.80
2017-09-24T00:49:33.823Z,71.90
2017-09-24T00:52:02.938Z,71.70
2017-09-24T00:54:31.187Z,71.70
2017-09-24T00:57:00.370Z,71.70
2017-09-24T00:59:29.045Z,71.50
2017-09-24T01:01:57.664Z,71.80
2017-09-24T01:04:26.845Z,71.90
2017-09-24T01:06:55.335Z,71.80
2017-09-24T01:09:24.695Z,71.50
2017-09-24T01:11:53.211Z,71.50
2017-09-24T01:14:22.607Z,71.60
2017-09-24T01:16:51.185Z,71.60
2017-09-24T01:19:19.357Z,71.60
2017-09-24T01:21:47.847Z,71.60
2017-09-24T01:24:16.418Z,71.20
2017-09-24T01:26:44.954Z,71.40
2017-09-24T01:29:13.619Z,71.30
2017-09-24T01:31:42.248Z,70.80
2017-09-24T01:34:10.708Z,70.70
2017-09-24T01:36:38.932Z,70.80
2017-09-24T01:39:09.072Z,70.80
2017-09-24T01:41:38.357Z,71.00
2017-09-24T01:44:07.462Z,70.90
2017-09-24T01:46:37.013Z,71.00
2017-09-24T01:49:05.522Z,71.00
2017-09-24T01:51:34.002Z,70.90
2017-09-24T01:54:02.903Z,71.30
2017-09-24T01:56:31.412Z,72.00
2017-09-24T01:58:59.928Z,71.50
2017-09-24T02:01:28.327Z,71.60
2017-09-24T02:03:56.498Z,71.80
2017-09-24T02:06:24.738Z,72.10
2017-09-24T02:08:53.227Z,72.30
2017-09-24T02:11:21.652Z,72.70
2017-09-24T02:13:49.892Z,72.80
2017-09-24T02:16:18.636Z,73.00
2017-09-24T02:18:48.136Z,72.90
2017-09-24T02:21:17.367Z,72.80
2017-09-24T02:23:45.771Z,72.80
2017-09-24T02:26:14.392Z,72.80
2017-09-24T02:28:43.667Z,73.20
2017-09-24T02:31:12.281Z,73.20
2017-09-24T02:33:40.529Z,73.30
2017-09-24T02:36:09.023Z,73.10
2017-09-24T02:38:38.210Z,72.90
2017-09-24T02:41:06.697Z,72.70
2017-09-24T02:43:35.969Z,73.90
2017-09-24T02:46:04.488Z,73.00
2017-09-24T02:48:33.771Z,73.10
2017-09-24T02:51:02.034Z,73.00
2017-09-24T02:53:30.414Z,73.20
2017-09-24T02:55:59.394Z,73.40
2017-09-24T02:58:27.593Z,73.30
2017-09-24T03:00:56.695Z,73.50
2017-09-24T03:03:25.528Z,73.70
2017-09-24T03:05:54.074Z,73.60
2017-09-24T03:08:23.271Z,73.50
2017-09-24T03:10:52.317Z,73.30
2017-09-24T03:13:20.832Z,73.30
2017-09-24T03:15:50.200Z,73.00
2017-09-24T03:18:18.290Z,73.00
2017-09-24T03:20:46.659Z,73.70
2017-09-24T03:23:15.572Z,73.10
2017-09-24T03:25:44.551Z,73.40
2017-09-24T03:28:13.011Z,73.30
2017-09-24T03:30:41.843Z,73.20
2017-09-24T03:33:11.096Z,73.00
2017-09-24T03:35:39.336Z,73.00
2017-09-24T03:38:07.637Z,73.00
2017-09-24T03:40:35.870Z,73.10
2017-09-24T03:43:05.235Z,73.40
2017-09-24T03:45:33.777Z,74.10
2017-09-24T03:48:02.200Z,73.30
2017-09-24T03:50:30.591Z,73.00
2017-09-24T03:53:00.128Z,72.80
2017-09-24T03:55:28.388Z,72.70
2017-09-24T03:57:57.547Z,72.90
2017-09-24T04:00:26.151Z,72.90
2017-09-24T04:02:54.466Z,73.20
2017-09-24T04:05:22.931Z,73.40
2017-09-24T04:07:51.288Z,73.50
2017-09-24T04:10:20.475Z,73.10
2017-09-24T04:12:49.078Z,73.50
2017-09-24T04:15:18.038Z,73.80
2017-09-24T04:17:46.430Z,73.60
2017-09-24T04:20:15.616Z,74.00
2017-09-24T04:22:43.812Z,73.80
2017-09-24T04:25:12.916Z,73.90
2017-09-24T04:27:42.113Z,73.60
2017-09-24T04:30:10.472Z,73.60
2017-09-24T04:32:39.654Z,73.20
2017-09-24T04:35:07.937Z,73.10
2017-09-24T04:37:36.211Z,73.20
2017-09-24T04:40:04.491Z,73.10
2017-09-24T04:42:33.634Z,73.20
2017-09-24T04:45:01.994Z,73.20
2017-09-24T04:47:31.294Z,73.70
2017-09-24T04:49:59.532Z,73.70
2017-09-24T04:52:28.512Z,74.10
2017-09-24T04:54:56.711Z,74.00
2017-09-24T04:57:26.112Z,74.10
2017-09-24T04:59:55.533Z,74.10
2017-09-24T05:02:23.975Z,74.10
2017-09-24T05:04:52.589Z,74.20
2017-09-24T05:07:21.975Z,74.50
2017-09-24T05:09:50.708Z,74.50
2017-09-24T05:12:18.936Z,74.50
2017-09-24T05:14:47.497Z,74.50
2017-09-24T05:17:15.970Z,73.60
2017-09-24T05:19:44.489Z,73.60
2017-09-24T05:22:13.634Z,73.40
2017-09-24T05:24:42.054Z,73.40
2017-09-24T05:27:11.150Z,74.00
2017-09-24T05:29:40.427Z,74.50
2017-09-24T05:32:08.708Z,73.90
2017-09-24T05:34:37.210Z,73.90
2017-09-24T05:37:06.613Z,74.00
2017-09-24T05:39:35.913Z,74.00
2017-09-24T05:42:04.069Z,74.00
2017-09-24T05:44:32.658Z,74.50
2017-09-24T05:47:01.029Z,74.60
2017-09-24T05:49:29.508Z,74.50
2017-09-24T05:51:58.068Z,74.80
2017-09-24T05:54:26.494Z,74.70
2017-09-24T05:56:55.897Z,74.70
2017-09-24T05:59:25.434Z,74.70
2017-09-24T06:01:53.874Z,74.70
2017-09-24T06:04:22.091Z,74.70
2017-09-24T06:06:50.198Z,74.90
2017-09-24T06:09:18.678Z,75.20
2017-09-24T06:11:47.173Z,75.10
2017-09-24T06:14:15.964Z,75.20
2017-09-24T06:16:44.230Z,75.30
2017-09-24T06:19:12.510Z,75.30
2017-09-24T06:21:40.812Z,75.20
2017-09-24T06:24:09.908Z,74.90
2017-09-24T06:26:38.437Z,74.90
2017-09-24T06:29:06.951Z,74.80
2017-09-24T06:31:36.329Z,74.90
2017-09-24T06:34:04.736Z,74.90
2017-09-24T06:36:34.041Z,75.10
2017-09-24T06:39:03.219Z,75.10
2017-09-24T06:41:31.611Z,75.10
2017-09-24T06:44:00.604Z,75.20
2017-09-24T06:46:29.474Z,75.10
2017-09-24T06:48:57.874Z,75.10
2017-09-24T06:51:26.955Z,75.10
2017-09-24T06:53:54.955Z,75.10
2017-09-24T06:56:23.159Z,75.60
2017-09-24T06:58:51.902Z,74.90
2017-09-24T07:01:21.195Z,74.40
2017-09-24T07:03:50.028Z,74.60
2017-09-24T07:06:18.457Z,74.60
2017-09-24T07:08:46.619Z,74.40
2017-09-24T07:11:14.773Z,74.40
2017-09-24T07:13:43.168Z,75.30
2017-09-24T07:16:11.568Z,74.80
2017-09-24T07:18:40.613Z,75.20
2017-09-24T07:21:09.097Z,75.10
2017-09-24T07:23:37.288Z,74.90
2017-09-24T07:26:06.108Z,74.80
2017-09-24T07:28:35.315Z,74.60
2017-09-24T07:31:04.074Z,74.60
2017-09-24T07:33:32.312Z,74.80
2017-09-24T07:36:00.675Z,74.80
2017-09-24T07:38:29.193Z,74.00
2017-09-24T07:40:57.281Z,74.70
2017-09-24T07:43:25.695Z,74.90
2017-09-24T07:45:54.105Z,76.00
2017-09-24T07:48:22.524Z,75.60
2017-09-24T07:50:51.758Z,76.00
2017-09-24T07:53:20.288Z,76.00
2017-09-24T07:55:48.873Z,76.20
2017-09-24T07:58:18.022Z,76.50
2017-09-24T08:00:46.145Z,76.50
2017-09-24T08:03:14.413Z,76.40
2017-09-24T08:05:42.806Z,76.20
2017-09-24T08:08:12.244Z,76.10
2017-09-24T08:10:40.799Z,76.10
2017-09-24T08:13:10.272Z,75.70
2017-09-24T08:15:38.874Z,75.70
2017-09-24T08:18:08.084Z,75.20
2017-09-24T08:20:37.095Z,74.50
2017-09-24T08:23:05.630Z,74.50
2017-09-24T08:25:34.050Z,74.10
2017-09-24T08:28:02.368Z,74.60
2017-09-24T08:30:30.924Z,74.60
2017-09-24T08:32:59.666Z,73.50
2017-09-24T08:35:28.154Z,73.40
2017-09-24T08:37:57.557Z,74.00
2017-09-24T08:40:26.959Z,74.00
2017-09-24T08:42:55.861Z,73.60
2017-09-24T08:45:25.150Z,74.20
2017-09-24T08:47:54.197Z,74.90
2017-09-24T08:50:22.908Z,74.90
2017-09-24T08:52:51.397Z,73.00
2017-09-24T08:55:19.866Z,73.60
2017-09-24T08:57:48.457Z,73.20
2017-09-24T09:00:16.550Z,72.80
2017-09-24T09:02:45.613Z,70.30
2017-09-24T09:05:17.704Z,70.30
2017-09-24T09:07:46.793Z,69.30
2017-09-24T09:10:18.755Z,68.60
2017-09-24T09:12:48.047Z,66.90
2017-09-24T09:15:16.216Z,66.90
2017-09-24T09:17:46.460Z,67.40
2017-09-24T09:20:15.939Z,66.90
2017-09-24T09:22:44.102Z,66.90
2017-09-24T09:25:14.155Z,67.80
2017-09-24T09:27:44.636Z,65.40
2017-09-24T09:30:13.036Z,65.40
2017-09-24T09:32:42.236Z,65.50
2017-09-24T09:35:18.715Z,65.60
2017-09-24T09:37:47.861Z,65.50
2017-09-24T09:40:16.595Z,65.40
2017-09-24T09:42:45.916Z,65.30
2017-09-24T09:48:25.039Z,62.10
2017-09-24T09:50:53.532Z,62.90
2017-09-24T09:53:22.853Z,63.70
2017-09-24T09:55:50.892Z,63.70
2017-09-24T09:58:20.297Z,62.70
2017-09-24T10:00:49.495Z,62.50
2017-09-24T10:03:18.673Z,63.00
2017-09-24T10:05:47.619Z,63.00
2017-09-24T10:08:27.930Z,62.60
2017-09-24T10:10:56.535Z,60.90
2017-09-24T10:13:25.875Z,61.00
2017-09-24T10:15:54.712Z,61.00
2017-09-24T10:18:24.077Z,60.80
2017-09-24T10:20:52.756Z,60.80
2017-09-24T10:23:21.264Z,60.60
2017-09-24T10:25:49.817Z,60.10
2017-09-24T10:28:29.698Z,60.90
2017-09-24T10:30:59.346Z,60.60
2017-09-24T10:33:27.777Z,59.80
2017-09-24T10:35:57.136Z,59.30
2017-09-24T10:38:25.687Z,59.30
2017-09-24T10:40:54.907Z,58.40
2017-09-24T10:43:23.153Z,58.40
2017-09-24T10:45:52.603Z,59.30
2017-09-24T10:48:21.176Z,59.20
2017-09-24T10:50:49.601Z,58.40
2017-09-24T10:53:18.996Z,56.60
2017-09-24T10:55:47.517Z,57.00
2017-09-24T10:58:16.247Z,56.50
2017-09-24T11:00:45.053Z,56.70
2017-09-24T11:03:13.440Z,55.30
2017-09-24T11:05:41.911Z,54.00
2017-09-24T11:08:12.021Z,53.30
2017-09-24T11:10:40.697Z,53.20
2017-09-24T11:13:09.007Z,52.70
2017-09-24T11:15:37.366Z,52.30
2017-09-24T11:18:05.772Z,52.00
2017-09-24T11:20:34.958Z,50.70
2017-09-24T11:23:04.321Z,51.00
2017-09-24T11:25:32.889Z,50.60
2017-09-24T11:28:01.477Z,50.90
2017-09-24T11:30:29.892Z,50.50
2017-09-24T11:32:59.109Z,50.60
2017-09-24T11:35:28.295Z,51.00
2017-09-24T11:37:57.943Z,51.30
2017-09-24T11:40:26.588Z,51.20
2017-09-24T11:42:55.892Z,50.10
2017-09-24T11:45:24.792Z,49.60
2017-09-24T11:47:54.087Z,49.80
2017-09-24T11:50:23.487Z,50.00
2017-09-24T11:52:52.867Z,48.80
2017-09-24T11:55:21.151Z,48.80
2017-09-24T11:57:51.328Z,48.50
2017-09-24T12:00:20.056Z,48.50
2017-09-24T12:02:50.059Z,48.60
2017-09-24T12:05:19.089Z,48.50
2017-09-24T12:07:47.722Z,47.60
2017-09-24T12:10:16.320Z,47.00
2017-09-24T12:12:44.842Z,47.90
2017-09-24T12:15:14.487Z,47.10
2017-09-24T12:17:43.001Z,47.10
2017-09-24T12:20:12.498Z,46.30
2017-09-24T12:22:41.802Z,46.20
2017-09-24T12:25:12.070Z,45.70
2017-09-24T12:27:40.576Z,45.70
2017-09-24T12:30:09.095Z,45.50
2017-09-24T12:32:38.489Z,45.30
2017-09-24T12:35:08.510Z,45.40
2017-09-24T12:37:37.011Z,45.30
2017-09-24T12:40:06.109Z,44.70
2017-09-24T12:42:34.919Z,44.70
2017-09-24T12:45:03.283Z,43.90
2017-09-24T12:47:32.030Z,44.10
2017-09-24T12:50:00.636Z,43.90
2017-09-24T12:52:29.711Z,43.90
2017-09-24T12:54:58.211Z,43.90
2017-09-24T12:57:27.710Z,43.90
2017-09-24T12:59:56.392Z,43.80
2017-09-24T13:02:24.862Z,43.00
2017-09-24T13:04:53.421Z,42.80
2017-09-24T13:07:22.130Z,43.90
2017-09-24T13:09:52.121Z,44.50
2017-09-24T13:12:20.401Z,44.40
2017-09-24T13:14:48.806Z,43.90
2017-09-24T13:17:17.480Z,44.00
2017-09-24T13:19:46.078Z,44.30
2017-09-24T13:22:14.557Z,45.50
2017-09-24T13:24:43.740Z,46.20
2017-09-24T13:27:12.130Z,46.20
2017-09-24T13:29:40.889Z,47.30
2017-09-24T13:32:09.277Z,48.50
2017-09-24T13:34:37.583Z,48.30
2017-09-24T13:37:06.763Z,48.90
2017-09-24T13:39:35.345Z,48.90
2017-09-24T13:42:03.838Z,49.70
2017-09-24T13:44:33.239Z,52.20
2017-09-24T13:47:02.208Z,52.90
2017-09-24T13:49:30.609Z,52.90
2017-09-24T13:51:58.738Z,52.90
2017-09-24T13:54:27.308Z,53.10
2017-09-24T13:56:57.381Z,53.00
2017-09-24T13:59:26.680Z,52.70
2017-09-24T14:01:55.960Z,53.20
2017-09-24T14:04:24.043Z,53.20
2017-09-24T14:06:53.345Z,53.40
2017-09-24T14:09:21.839Z,53.40
2017-09-24T14:11:50.228Z,54.10
2017-09-24T14:14:18.499Z,53.90
2017-09-24T14:16:47.700Z,54.00
2017-09-24T14:19:17.281Z,52.20
2017-09-24T14:21:45.853Z,52.20
2017-09-24T14:24:14.354Z,52.20
2017-09-24T14:26:43.543Z,55.20
2017-09-24T14:29:12.972Z,55.80
2017-09-24T14:31:41.211Z,55.20
2017-09-24T14:34:09.816Z,53.80
2017-09-24T14:36:39.258Z,54.30
2017-09-24T14:39:07.808Z,54.30
2017-09-24T14:41:37.297Z,53.90
2017-09-24T14:44:05.753Z,53.90
2017-09-24T14:46:34.482Z,54.20
2017-09-24T14:49:03.642Z,53.80
2017-09-24T14:51:32.370Z,53.80
2017-09-24T14:54:00.905Z,53.70
2017-09-24T14:56:29.271Z,54.00
2017-09-24T14:58:57.489Z,53.60
2017-09-24T15:01:26.550Z,52.80
2017-09-24T15:03:55.275Z,52.70
2017-09-24T15:06:24.690Z,54.30
2017-09-24T15:08:53.191Z,54.30
2017-09-24T15:11:21.721Z,54.10
2017-09-24T15:13:51.204Z,53.40
2017-09-24T15:16:19.624Z,53.40
2017-09-24T15:18:49.167Z,52.70
2017-09-24T15:21:17.936Z,52.60
2017-09-24T15:23:46.573Z,52.30
2017-09-24T15:26:15.099Z,51.80
2017-09-24T15:28:43.353Z,51.80
2017-09-24T15:31:12.766Z,53.10
2017-09-24T15:33:41.214Z,53.10
2017-09-24T15:36:10.514Z,56.10
2017-09-24T15:38:39.731Z,54.80
2017-09-24T15:41:09.087Z,55.30
2017-09-24T15:43:37.700Z,55.30
2017-09-24T15:46:07.100Z,56.20
2017-09-24T15:48:36.499Z,53.70
2017-09-24T15:51:05.796Z,53.10
2017-09-24T15:53:34.453Z,52.90
2017-09-24T15:56:02.753Z,53.10
2017-09-24T15:58:31.888Z,52.60
2017-09-24T16:01:00.438Z,52.50
2017-09-24T16:03:28.799Z,52.40
2017-09-24T16:05:57.626Z,52.40
2017-09-24T16:08:26.275Z,51.90
2017-09-24T16:10:55.997Z,56.50
2017-09-24T16:13:25.739Z,56.80
2017-09-24T16:15:53.845Z,56.80
2017-09-24T16:18:22.315Z,57.00
2017-09-24T16:20:52.014Z,57.40
2017-09-24T16:23:20.342Z,57.30
2017-09-24T16:25:48.608Z,57.30
2017-09-24T16:28:17.116Z,57.50
2017-09-24T16:30:46.319Z,57.70
2017-09-24T16:33:16.478Z,58.30
2017-09-24T16:35:45.249Z,58.40
2017-09-24T16:38:13.258Z,58.60
2017-09-24T16:40:41.798Z,58.80
2017-09-24T16:43:10.442Z,58.90
2017-09-24T16:45:39.393Z,59.80
2017-09-24T16:48:07.553Z,59.20
2017-09-24T16:50:35.954Z,58.90
2017-09-24T16:53:04.762Z,58.50
2017-09-24T16:55:33.308Z,58.40
2017-09-24T16:58:01.572Z,59.00
2017-09-24T17:00:29.874Z,59.10
2017-09-24T17:02:58.196Z,59.10
2017-09-24T17:05:27.543Z,58.80
2017-09-24T17:07:56.262Z,58.80
2017-09-24T17:10:24.905Z,59.30
2017-09-24T17:12:53.326Z,59.60
2017-09-24T17:15:22.626Z,59.70
2017-09-24T17:17:51.966Z,60.70
2017-09-24T17:20:20.605Z,59.90
2017-09-24T17:22:48.946Z,60.00
2017-09-24T17:25:17.642Z,60.30
2017-09-24T17:27:46.212Z,60.30
2017-09-24T17:30:15.319Z,60.30
2017-09-24T17:32:43.836Z,60.00
2017-09-24T17:35:12.924Z,60.60
2017-09-24T17:37:42.203Z,60.50
2017-09-24T17:40:10.842Z,60.40
2017-09-24T17:42:39.524Z,60.40
2017-09-24T17:45:07.950Z,60.80
2017-09-24T17:47:36.733Z,61.10
2017-09-24T17:50:05.058Z,61.40
2017-09-24T17:52:34.658Z,62.00
2017-09-24T17:55:03.407Z,62.00
2017-09-24T17:57:31.889Z,61.90
2017-09-24T18:00:00.830Z,62.60
2017-09-24T18:02:29.518Z,61.90
2017-09-24T18:04:58.394Z,62.10
2017-09-24T18:07:27.135Z,62.20
2017-09-24T18:09:55.576Z,61.90
2017-09-24T18:12:23.964Z,61.90
2017-09-24T18:14:52.721Z,62.10
2017-09-24T18:17:22.167Z,61.10
2017-09-24T18:19:50.834Z,61.10
2017-09-24T18:22:20.049Z,59.90
2017-09-24T18:24:48.978Z,60.20
2017-09-24T18:27:18.643Z,61.80
2017-09-24T18:29:47.663Z,61.70
2017-09-24T18:32:16.558Z,62.00
2017-09-24T18:34:45.875Z,60.80
2017-09-24T18:37:15.390Z,60.30
2017-09-24T18:39:44.797Z,60.80
2017-09-24T18:42:14.075Z,61.10
2017-09-24T18:44:44.641Z,61.80
2017-09-24T18:47:13.848Z,61.80
2017-09-24T18:49:42.736Z,62.00
2017-09-24T18:52:11.714Z,61.70
2017-09-24T18:54:40.995Z,61.50
2017-09-24T18:57:11.194Z,60.60
2017-09-24T18:59:40.350Z,60.60
2017-09-24T19:02:09.095Z,60.40
2017-09-24T19:04:37.816Z,60.50
2017-09-24T19:07:06.965Z,61.10
2017-09-24T19:09:36.892Z,60.60
2017-09-24T19:12:06.623Z,60.20
2017-09-24T19:14:35.832Z,60.20
2017-09-24T19:17:05.344Z,60.20
2017-09-24T19:19:34.602Z,60.60
2017-09-24T19:22:03.909Z,60.90
2017-09-24T19:24:33.287Z,61.30
2017-09-24T19:27:02.612Z,61.00
2017-09-24T19:29:31.520Z,61.30
2017-09-24T19:32:00.549Z,61.40
2017-09-24T19:34:29.815Z,61.20
2017-09-24T19:36:58.898Z,61.30
2017-09-24T19:39:28.163Z,62.00
2017-09-24T19:41:58.235Z,62.00
2017-09-24T19:44:27.514Z,62.00
2017-09-24T19:46:57.016Z,62.50
2017-09-24T19:49:26.281Z,62.30
2017-09-24T19:51:55.838Z,64.10
2017-09-24T19:54:24.277Z,64.00
2017-09-24T19:56:53.092Z,65.20
2017-09-24T19:59:22.320Z,65.30
2017-09-24T20:01:51.160Z,65.20
2017-09-24T20:04:20.660Z,66.00
2017-09-24T20:06:49.362Z,66.00
2017-09-24T20:09:18.641Z,65.50
2017-09-24T20:11:47.395Z,65.50
2017-09-24T20:14:16.099Z,66.30
2017-09-24T20:16:44.748Z,66.40
2017-09-24T20:19:13.389Z,66.10
2017-09-24T20:21:42.747Z,66.20
2017-09-24T20:24:11.241Z,66.10
2017-09-24T20:26:39.765Z,66.50
2017-09-24T20:29:09.013Z,66.60
2017-09-24T20:31:37.332Z,66.50
2017-09-24T20:34:06.760Z,66.60
2017-09-24T20:36:35.314Z,65.90
2017-09-24T20:39:04.804Z,69.10
2017-09-24T20:41:34.005Z,69.60
2017-09-24T20:44:02.244Z,69.60
2017-09-24T20:46:30.804Z,68.60
2017-09-24T20:48:59.064Z,68.80
2017-09-24T20:51:28.232Z,69.00
2017-09-24T20:53:56.910Z,68.90
2017-09-24T20:56:25.270Z,68.40
2017-09-24T20:58:54.091Z,68.30
2017-09-24T21:01:22.350Z,69.00
2017-09-24T21:03:50.972Z,68.80
2017-09-24T21:06:19.338Z,69.80
2017-09-24T21:08:48.537Z,69.50
2017-09-24T21:11:17.917Z,69.50
2017-09-24T21:13:46.623Z,69.50
2017-09-24T21:16:15.637Z,70.00
2017-09-24T21:18:44.116Z,70.00
2017-09-24T21:21:12.847Z,69.90
2017-09-24T21:23:41.496Z,69.60
2017-09-24T21:26:10.150Z,69.90
2017-09-24T21:28:39.876Z,67.70
2017-09-24T21:31:08.240Z,67.60
2017-09-24T21:33:36.694Z,66.20
2017-09-24T21:36:05.266Z,66.70
2017-09-24T21:38:33.996Z,67.30
2017-09-24T21:41:02.193Z,68.40
2017-09-24T21:43:30.925Z,69.20
2017-09-24T21:45:59.610Z,69.00
2017-09-24T21:48:28.170Z,68.90
2017-09-24T21:50:56.982Z,68.50
2017-09-24T21:53:25.606Z,69.70
2017-09-24T21:55:54.113Z,69.70
2017-09-24T21:58:22.752Z,69.10
2017-09-24T22:00:51.858Z,69.30
2017-09-24T22:03:20.578Z,69.30
2017-09-24T22:05:49.122Z,69.00
2017-09-24T22:08:18.710Z,70.20
2017-09-24T22:10:48.006Z,69.40
2017-09-24T22:13:16.570Z,69.30
2017-09-24T22:15:45.199Z,69.70
2017-09-24T22:18:13.648Z,70.50
2017-09-24T22:20:42.376Z,69.80
2017-09-24T22:23:10.845Z,69.60
2017-09-24T22:25:39.374Z,69.60
2017-09-24T22:28:07.880Z,70.40
2017-09-24T22:30:37.279Z,70.30
2017-09-24T22:33:05.635Z,70.20
2017-09-24T22:35:34.047Z,70.70
2017-09-24T22:38:03.455Z,71.20
2017-09-24T22:40:32.632Z,71.20
2017-09-24T22:43:01.425Z,71.10
2017-09-24T22:45:30.454Z,71.30
2017-09-24T22:47:59.197Z,71.10
2017-09-24T22:50:27.831Z,71.50
2017-09-24T22:52:56.576Z,71.70
2017-09-24T22:55:24.769Z,72.00
2017-09-24T22:57:54.131Z,72.10
2017-09-24T23:00:22.671Z,72.10
2017-09-24T23:02:51.117Z,71.80
2017-09-24T23:05:20.615Z,72.10
2017-09-24T23:07:49.192Z,72.10
2017-09-24T23:10:17.813Z,71.50
2017-09-24T23:12:46.454Z,72.00
2017-09-24T23:15:14.590Z,71.60
2017-09-24T23:17:43.274Z,71.80
2017-09-24T23:20:11.803Z,72.30
2017-09-24T23:22:40.193Z,72.40
2017-09-24T23:25:09.466Z,72.00
2017-09-24T23:27:37.768Z,72.00
2017-09-24T23:30:07.169Z,71.90
2017-09-24T23:32:36.934Z,72.00
2017-09-24T23:35:05.870Z,72.00
2017-09-24T23:37:35.255Z,72.40
2017-09-24T23:40:03.751Z,72.40
2017-09-24T23:42:33.034Z,72.20
2017-09-24T23:45:01.483Z,72.20
2017-09-24T23:47:30.113Z,72.20
2017-09-24T23:49:59.281Z,71.70
2017-09-24T23:52:27.312Z,71.70
2017-09-24T23:54:55.739Z,72.00
2017-09-24T23:57:24.367Z,72.10
2017-09-24T23:59:53.129Z,71.90
